HEAO2: North Fork Red, OK

Data processed at Sun Apr 30 2017 22:11


All information presented herein is the property of the government of the United States of America and may be revised or deleted at any time without prior notice.
Dissemination of this information without the expressed written consent of the Public Affairs Office, Tulsa District U.S. Army Corps of Engineers is strictly prohibited.
These data are gathered electronically and, as presented, have not undergone any form of quality control. These data are not guaranteed to be valid or correct.
Go to home page.
Go to station list.
Go to station map.

Upstream stations:

Downstream station:
Previous Day
Next Day
Current Day
    
SHEF ID:       HEAO2     North Fork Red River near Headri
STATION TYPE:  

               PRECIP     STAGE  RIV-FLOW   VOLTAGE
                   in        ft       cfs      volt
              Ccp-Rev   Ccp-Rev   Ccp-Rev   Ccp-Rev
(US/Central)
04/30 00:00      0.00      6.93       157     12.90
04/30 01:00      0.00      8.65       647     12.87
04/30 02:00      0.00     11.27      2187     12.85
04/30 03:00      0.00     12.18      3002     12.81
04/30 04:00      0.00     12.77      3674     12.78
04/30 05:00      0.00     13.12      4115     12.74
04/30 06:00      0.00     13.46      4560     12.71
04/30 07:00      0.00     13.70      4903     12.71
04/30 08:00      0.00     13.88      5167     12.97
04/30 09:00      0.00     14.05      5417     13.69
04/30 10:00      0.01     14.19      5642     14.54
04/30 11:00      0.00     14.35      5889     14.65
04/30 12:00      0.01     14.42      6007     14.66
04/30 13:00      0.00     14.56      6246     14.22
04/30 14:00      0.00     14.63      6368     14.22
04/30 15:00      0.00     14.69      6474     14.21
04/30 16:00      0.00     14.77      6616     14.21
04/30 17:00      0.00     14.80      6670     14.22
04/30 18:00      0.00     14.83      6725     14.24
04/30 19:00      0.00     14.91      6871     14.23
04/30 20:00      0.00     14.95      6944     13.30
04/30 21:00      0.00     14.98      7000     13.06
04/30 22:00      0.00     14.97      ----     12.96
04/30 23:00      ----      ----      ----      ----